Kobuk Valley National Park, AK

11:27 AM AKST op 26 januari 2015 (GMT -0900)
Ambler | Change Station
CLOSE
Current Station
Luchthaven
Location: Ambler,
Geometrische hoogte: 289 ft
Nabije weerstations

Hoogte 289 ft 67.11 °N, 157.86 °W | Updated 9 days ago

Clear
-30 °F
Voelt als -30 °F
N
1
Wind Variabel Wind van OZO
Gusts mijl/u

Vandaag
Hoog -- | Laag -- °F
--% Kans op neerslag
Gisteren
Hoog -- | Laag -- °F
Precip. -- inches
11:17 AM 4:31 PM
Wassende halvemaan, 46% visible
Druk 29.12 inches
Zicht 10.0 mijlen
Wolken Geheel bewolkt 6000 ft
Dauwpunt -32 °F
Vochtigheid 91%
Neerslag 0.00 inches
Dikte sneeuw Niet beschikbaar.
UV 0 van de 12
Pollen Niet beschikbaar.
Luchtkwaliteit Niet beschikbaar.
Flu Activity Niet beschikbaar.
METAR PAFM 171740Z 00000KT 10SM OVC060 M04/M06 A2912 RMK VIA PHONE

More Conditions Fewer Conditions

Druk 29.12 inches
Zicht 10.0 mijlen
Wolken Geheel bewolkt 6000 ft
Dauwpunt -32 °F
Vochtigheid 91%
Neerslag 0.00 inches
Dikte sneeuw Niet beschikbaar.
UV 0 van de 12
Pollen Niet beschikbaar.
Luchtkwaliteit Niet beschikbaar.
Flu Activity Niet beschikbaar.
METAR PAFM 171740Z 00000KT 10SM OVC060 M04/M06 A2912 RMK VIA PHONE

More Conditions Fewer Conditions

10-Day Weather Forecast

Almanac

Astronomie

Jan. 26, 2015 Opkomst Ondergang
Werkelijke tijd
Burgerlijke schemering
Nautische schemering
Astronomische schemering
Maan
Golflengte van het zichtbare licht
Daglengte
Tomorrow will be .
, % of the Moon is Illuminated

Extremen vandaag

State Highs State Lows

Community

WunderPhotos

Upload Photos

1,790,350 foto’s ge-upload!

WunderBlogs® & News

Nearby

Luchtkwaliteit

  Luchtkwaliteit LK-index Verontreinigende stof
Not available.

Dikte sneeuw

Station Depth Geometrische hoogte

Aardbevingen

Stad Distance Mag. Time & Date
Minimum magnitude displayed is 2.5.

Watertemperatuur langs de kust

Plaats Temperatuur

Nabije weerstations